Time;durP1;ratioP1;P1;durP2;ratioP2;P2;SDS_P1;SDS_P2;PMS_P1;PMS_P2;Temp;Humidity;BMP_temperature;BMP_pressure;BME280_temperature;BME280_humidity;BME280_pressure;Samples;Min_cycle;Max_cycle;Signal;HPM_P1;HPM_P2
2023/03/31 00:00:45;;;;;;;444.53;257.87;;;;;;;-142.25;100.00;58004.16;5028673;28;20057;-60
2023/03/31 00:03:12;;;;;;;440.03;250.63;;;;;;;-142.25;100.00;58004.16;5026705;28;21095;-58
2023/03/31 00:05:44;;;;;;;437.50;244.53;;;;;;;-142.25;100.00;58004.16;5028489;28;20072;-60
2023/03/31 00:08:12;;;;;;;433.30;239.57;;;;;;;-142.25;100.00;58004.16;5030405;28;20049;-59
2023/03/31 00:10:44;;;;;;;429.37;240.73;;;;;;;-142.25;100.00;58004.16;5024293;28;20045;-60
2023/03/31 00:13:11;;;;;;;429.03;233.70;;;;;;;-142.25;100.00;58004.16;5027705;28;20037;-59
2023/03/31 00:15:36;;;;;;;432.40;233.97;;;;;;;-142.25;100.00;58004.16;5024327;28;20316;-60
2023/03/31 00:18:03;;;;;;;430.97;234.03;;;;;;;-142.25;100.00;58004.16;5025974;28;20037;-60
2023/03/31 00:20:28;;;;;;;433.80;241.47;;;;;;;-142.25;100.00;58004.16;5029636;28;20061;-60
2023/03/31 00:22:56;;;;;;;431.73;239.30;;;;;;;-142.25;100.00;58004.16;5028815;28;20408;-59
2023/03/31 00:25:22;;;;;;;429.67;226.47;;;;;;;-142.25;100.00;58004.16;5028493;28;20037;-59
2023/03/31 00:27:49;;;;;;;428.43;226.03;;;;;;;-142.25;100.00;58004.16;5029532;28;20110;-58
2023/03/31 00:30:15;;;;;;;430.40;230.63;;;;;;;-142.25;100.00;58004.16;5026962;28;20133;-60
2023/03/31 00:32:40;;;;;;;425.77;218.43;;;;;;;-142.25;100.00;58004.16;5026898;28;20049;-59
2023/03/31 00:35:07;;;;;;;424.27;216.53;;;;;;;-142.25;100.00;58004.16;5027693;28;20752;-59
2023/03/31 00:37:33;;;;;;;424.03;214.97;;;;;;;-142.25;100.00;58004.16;5028787;28;20151;-60
2023/03/31 00:39:59;;;;;;;431.67;225.17;;;;;;;-142.25;100.00;58004.16;5026717;28;20071;-59
2023/03/31 00:42:26;;;;;;;436.93;226.83;;;;;;;-142.25;100.00;58004.16;5043529;28;20201;-59
2023/03/31 00:45:13;;;;;;;438.40;226.33;;;;;;;-142.25;100.00;58004.16;5029132;28;20040;-58
2023/03/31 00:47:51;;;;;;;439.07;220.57;;;;;;;-142.25;100.00;58004.16;5024865;28;20063;-60
2023/03/31 00:50:22;;;;;;;435.53;217.83;;;;;;;-142.25;100.00;58004.16;5028569;28;20625;-60
2023/03/31 00:52:54;;;;;;;439.77;220.93;;;;;;;-142.25;100.00;58004.16;5024996;28;20571;-59
2023/03/31 00:55:27;;;;;;;439.53;220.47;;;;;;;-142.25;100.00;58004.16;5028351;28;20075;-61
2023/03/31 00:57:54;;;;;;;434.73;212.80;;;;;;;-142.25;100.00;58004.16;5028881;28;20040;-59
2023/03/31 01:00:20;;;;;;;443.73;222.10;;;;;;;-142.25;100.00;58004.16;5028000;28;20520;-60
2023/03/31 01:03:02;;;;;;;436.80;216.07;;;;;;;-142.25;100.00;58004.16;5027354;28;20118;-60
2023/03/31 01:05:35;;;;;;;436.67;215.40;;;;;;;-142.25;100.00;58004.16;5023969;28;20054;-59
2023/03/31 01:08:04;;;;;;;435.70;213.00;;;;;;;-142.25;100.00;58004.16;5026903;28;20154;-57
2023/03/31 01:10:40;;;;;;;434.53;209.80;;;;;;;-142.25;100.00;58004.16;5025297;28;20519;-59
2023/03/31 01:13:09;;;;;;;428.90;199.73;;;;;;;-142.25;100.00;58004.16;5025628;28;20637;-61
2023/03/31 01:15:35;;;;;;;429.73;203.10;;;;;;;-142.25;100.00;58004.16;5027784;28;20429;-58
2023/03/31 01:18:03;;;;;;;430.73;205.80;;;;;;;-142.25;100.00;58004.16;5030103;28;20412;-59
2023/03/31 01:20:41;;;;;;;430.50;198.40;;;;;;;-142.25;100.00;58004.16;5042864;28;20035;-57
2023/03/31 01:23:39;;;;;;;422.90;190.70;;;;;;;-142.25;100.00;58004.16;5025699;28;20075;-59
2023/03/31 01:26:44;;;;;;;423.40;189.03;;;;;;;-142.25;100.00;58004.16;5027683;28;20394;-60
2023/03/31 01:29:43;;;;;;;424.15;190.95;;;;;;;-142.25;100.00;58004.16;5027970;28;20445;-60
2023/03/31 01:32:15;;;;;;;425.93;190.40;;;;;;;-142.25;100.00;58004.16;5024415;28;20135;-60
2023/03/31 01:35:18;;;;;;;425.47;187.20;;;;;;;-142.25;100.00;58004.16;5027000;28;20156;-59
2023/03/31 01:38:21;;;;;;;425.63;187.00;;;;;;;-142.25;100.00;58004.16;5025037;28;20033;-62
2023/03/31 01:41:12;;;;;;;431.20;196.27;;;;;;;-142.25;100.00;58004.16;5027007;28;20048;-62
2023/03/31 01:44:16;;;;;;;428.77;187.97;;;;;;;-142.25;100.00;58004.16;5032053;28;20048;-59
2023/03/31 01:47:21;;;;;;;433.90;197.30;;;;;;;-142.25;100.00;58004.16;5033171;28;20873;-60
2023/03/31 01:49:59;;;;;;;432.65;195.02;;;;;;;-142.25;100.00;58004.16;5031051;28;20033;-59
2023/03/31 01:52:42;;;;;;;433.63;197.87;;;;;;;-142.25;100.00;58004.16;5046445;28;20041;-59
2023/03/31 01:55:15;;;;;;;434.70;203.13;;;;;;;-142.25;100.00;58004.16;5032532;28;20056;-59
2023/03/31 01:57:53;;;;;;;434.17;197.67;;;;;;;-142.25;100.00;58004.16;5033037;28;20068;-59
2023/03/31 02:00:28;;;;;;;432.93;198.23;;;;;;;-142.25;100.00;58004.16;5031426;28;20045;-58
2023/03/31 02:03:23;;;;;;;432.60;201.73;;;;;;;-142.25;100.00;58004.16;5031099;28;20048;-59
2023/03/31 02:05:58;;;;;;;441.30;208.80;;;;;;;-142.25;100.00;58004.16;5038209;28;20340;-61
2023/03/31 02:08:27;;;;;;;438.43;209.43;;;;;;;-142.25;100.00;58004.16;5047602;28;20037;-58
2023/03/31 02:10:55;;;;;;;437.53;207.53;;;;;;;-142.25;100.00;58004.16;5028551;28;20041;-59
2023/03/31 02:13:23;;;;;;;432.97;203.60;;;;;;;-142.25;100.00;58004.16;5016005;28;20142;-60
2023/03/31 02:15:58;;;;;;;435.77;202.87;;;;;;;-142.25;100.00;58004.16;5031853;28;20041;-60
2023/03/31 02:18:32;;;;;;;433.88;201.95;;;;;;;-142.25;100.00;58004.16;5040472;28;20597;-60
2023/03/31 02:20:59;;;;;;;436.53;206.77;;;;;;;-142.25;100.00;58004.16;5027146;28;20072;-60
2023/03/31 02:23:30;;;;;;;433.37;207.43;;;;;;;-142.25;100.00;58004.16;5030119;28;20048;-60
2023/03/31 02:26:13;;;;;;;437.83;205.97;;;;;;;-142.25;100.00;58004.16;5031455;28;20162;-58
2023/03/31 02:28:39;;;;;;;435.17;202.90;;;;;;;-142.25;100.00;58004.16;5030141;28;20107;-60
2023/03/31 02:31:22;;;;;;;431.20;201.07;;;;;;;-142.25;100.00;58004.16;5028805;28;20148;-59
2023/03/31 02:33:48;;;;;;;435.07;200.83;;;;;;;-142.25;100.00;58004.16;5037484;28;20596;-60
2023/03/31 02:36:14;;;;;;;434.53;201.27;;;;;;;-142.25;100.00;58004.16;5032499;28;20098;-59
2023/03/31 02:38:58;;;;;;;431.53;199.30;;;;;;;-142.25;100.00;58004.16;5030985;28;20148;-58
2023/03/31 02:41:26;;;;;;;429.60;196.17;;;;;;;-142.25;100.00;58004.16;5036592;28;20411;-59
2023/03/31 02:43:52;;;;;;;430.27;194.57;;;;;;;-142.25;100.00;58004.16;5029087;28;20099;-59
2023/03/31 02:46:17;;;;;;;430.07;192.90;;;;;;;-142.25;100.00;58004.16;5033387;28;20566;-60
2023/03/31 02:48:50;;;;;;;429.00;195.43;;;;;;;-142.25;100.00;58004.16;5034469;28;20437;-60
2023/03/31 02:51:25;;;;;;;431.87;192.03;;;;;;;-142.25;100.00;58004.16;5026243;28;20048;-58
2023/03/31 02:54:10;;;;;;;432.17;191.82;;;;;;;-142.25;100.00;58004.16;5036725;28;20142;-59
2023/03/31 02:57:02;;;;;;;432.37;193.63;;;;;;;-142.25;100.00;58004.16;5035149;28;20061;-58
2023/03/31 02:59:53;;;;;;;429.80;186.37;;;;;;;-142.25;100.00;58004.16;5028119;28;20450;-58
2023/03/31 03:02:55;;;;;;;427.90;181.40;;;;;;;-142.25;100.00;58004.16;5042999;28;20053;-58
2023/03/31 03:05:33;;;;;;;427.00;180.40;;;;;;;-142.25;100.00;58004.16;5031771;28;20053;-58
2023/03/31 03:08:32;;;;;;;429.60;182.90;;;;;;;-142.25;100.00;58004.16;5029551;28;20056;-59
2023/03/31 03:11:09;;;;;;;425.60;180.43;;;;;;;-142.25;100.00;58004.16;5029414;28;20575;-60
2023/03/31 03:14:05;;;;;;;425.53;181.47;;;;;;;-142.25;100.00;58004.16;5043735;28;20396;-58
2023/03/31 03:16:42;;;;;;;427.40;180.63;;;;;;;-142.25;100.00;58004.16;5029080;28;20512;-58
2023/03/31 03:19:08;;;;;;;430.67;181.13;;;;;;;-142.25;100.00;58004.16;5028228;28;20037;-61
2023/03/31 03:21:34;;;;;;;426.93;178.53;;;;;;;-142.25;100.00;58004.16;5028958;28;20037;-60
2023/03/31 03:24:00;;;;;;;427.13;183.87;;;;;;;-142.25;100.00;58004.16;5021627;28;20681;-59
2023/03/31 03:26:27;;;;;;;427.50;180.47;;;;;;;-142.25;100.00;58004.16;5029171;28;20440;-60
2023/03/31 03:28:54;;;;;;;426.20;179.13;;;;;;;-142.25;100.00;58004.16;5029526;28;20052;-58
2023/03/31 03:31:22;;;;;;;426.87;183.27;;;;;;;-142.25;100.00;58004.16;5029677;28;21084;-60
2023/03/31 03:33:49;;;;;;;426.23;179.20;;;;;;;-142.25;100.00;58004.16;5028528;28;20361;-59
2023/03/31 03:36:15;;;;;;;425.87;178.10;;;;;;;-142.25;100.00;58004.16;5029084;28;20067;-58
2023/03/31 03:38:41;;;;;;;427.70;177.40;;;;;;;-142.25;100.00;58004.16;5032690;28;20119;-60
2023/03/31 03:41:07;;;;;;;422.67;172.83;;;;;;;-142.25;100.00;58004.16;5028416;28;20079;-60
2023/03/31 03:43:33;;;;;;;425.90;178.23;;;;;;;-142.25;100.00;58004.16;5027195;28;20461;-63
2023/03/31 03:45:59;;;;;;;424.30;170.97;;;;;;;-142.25;100.00;58004.16;5026581;28;20829;-65
2023/03/31 03:48:25;;;;;;;428.70;180.43;;;;;;;-142.25;100.00;58004.16;5029738;28;20048;-60
2023/03/31 03:50:52;;;;;;;422.40;181.13;;;;;;;-142.25;100.00;58004.16;5024868;28;20481;-58
2023/03/31 03:53:17;;;;;;;426.13;177.03;;;;;;;-142.25;100.00;58004.16;5028197;28;20139;-60
2023/03/31 03:55:44;;;;;;;422.97;171.13;;;;;;;-142.25;100.00;58004.16;5029541;28;20044;-59
2023/03/31 03:58:10;;;;;;;420.63;167.27;;;;;;;-142.25;100.00;58004.16;5029126;28;20064;-59
2023/03/31 04:00:36;;;;;;;420.90;167.30;;;;;;;-142.25;100.00;58004.16;5026955;28;20049;-58
2023/03/31 04:03:01;;;;;;;419.10;172.17;;;;;;;-142.25;100.00;58004.16;5029897;28;20059;-59
2023/03/31 04:05:27;;;;;;;418.70;168.37;;;;;;;-142.25;100.00;58004.16;5029507;28;20469;-59
2023/03/31 04:07:52;;;;;;;415.97;162.30;;;;;;;-142.25;100.00;58004.16;5029272;28;20056;-58
2023/03/31 04:10:18;;;;;;;422.57;176.20;;;;;;;-142.25;100.00;58004.16;5030343;28;20125;-58
2023/03/31 04:12:43;;;;;;;421.50;168.20;;;;;;;-142.25;100.00;58004.16;5028500;28;20558;-58
2023/03/31 04:15:09;;;;;;;417.97;159.23;;;;;;;-142.25;100.00;58004.16;5031196;28;20052;-59
2023/03/31 04:17:35;;;;;;;418.80;165.53;;;;;;;-142.25;100.00;58004.16;5026685;28;20091;-58
2023/03/31 04:20:04;;;;;;;412.40;160.43;;;;;;;-142.25;100.00;58004.16;5030510;28;20045;-58
2023/03/31 04:22:39;;;;;;;421.73;170.90;;;;;;;-142.25;100.00;58004.16;5030261;28;20049;-58
2023/03/31 04:25:15;;;;;;;416.02;164.68;;;;;;;-142.25;100.00;58004.16;5027010;28;20041;-59
2023/03/31 04:27:55;;;;;;;418.50;164.67;;;;;;;-142.25;100.00;58004.16;5031857;28;20209;-59
2023/03/31 04:30:23;;;;;;;416.00;160.60;;;;;;;-142.25;100.00;58004.16;5029952;28;20041;-58
2023/03/31 04:32:54;;;;;;;420.17;165.07;;;;;;;-142.25;100.00;58004.16;5033175;28;20045;-55
2023/03/31 04:35:25;;;;;;;418.90;160.70;;;;;;;-142.25;100.00;58004.16;5034302;28;20049;-59
2023/03/31 04:37:57;;;;;;;419.57;171.03;;;;;;;-142.25;100.00;58004.16;5031146;28;20582;-58
2023/03/31 04:40:24;;;;;;;417.73;163.67;;;;;;;-142.25;100.00;58004.16;5023977;28;20043;-58
2023/03/31 04:42:50;;;;;;;434.70;183.27;;;;;;;-142.25;100.00;58004.16;5022941;28;20041;-60
2023/03/31 04:45:16;;;;;;;414.43;164.37;;;;;;;-142.25;100.00;58004.16;5025569;28;20029;-61
2023/03/31 04:47:42;;;;;;;413.40;157.47;;;;;;;-142.25;100.00;58004.16;5027348;28;20128;-61
2023/03/31 04:50:12;;;;;;;415.17;162.67;;;;;;;-142.25;100.00;58004.16;5027224;28;20083;-60
2023/03/31 04:52:38;;;;;;;414.87;162.97;;;;;;;-142.25;100.00;58004.16;5026555;28;20790;-59
2023/03/31 04:55:09;;;;;;;412.67;162.23;;;;;;;-142.25;100.00;58004.16;5024308;28;20326;-60
2023/03/31 04:57:36;;;;;;;413.93;159.47;;;;;;;-142.25;100.00;58004.16;5025515;28;20353;-60
2023/03/31 05:00:06;;;;;;;412.73;160.10;;;;;;;-142.25;100.00;58004.16;5027899;28;20676;-62
2023/03/31 05:02:32;;;;;;;414.77;162.73;;;;;;;-142.25;100.00;58004.16;5026979;28;20049;-61
2023/03/31 05:04:58;;;;;;;415.30;161.13;;;;;;;-142.25;100.00;58004.16;5028233;28;20288;-61
2023/03/31 05:07:24;;;;;;;413.67;163.13;;;;;;;-142.25;100.00;58004.16;5028084;28;20829;-58
2023/03/31 05:09:49;;;;;;;414.63;165.00;;;;;;;-142.25;100.00;58004.16;5028596;28;20559;-61
2023/03/31 05:12:15;;;;;;;416.43;162.40;;;;;;;-142.25;100.00;58004.16;5026768;28;20045;-60
2023/03/31 05:14:41;;;;;;;413.10;163.77;;;;;;;-142.25;100.00;58004.16;5024617;28;20321;-61
2023/03/31 05:17:06;;;;;;;414.37;164.47;;;;;;;-142.25;100.00;58004.16;5024344;28;20080;-61
2023/03/31 05:19:32;;;;;;;413.77;164.13;;;;;;;-142.25;100.00;58004.16;5027672;28;20036;-61
2023/03/31 05:21:57;;;;;;;423.03;178.43;;;;;;;-142.25;100.00;58004.16;5023191;28;20041;-60
2023/03/31 05:24:23;;;;;;;422.53;180.20;;;;;;;-142.25;100.00;58004.16;5021891;28;20048;-60
2023/03/31 05:26:51;;;;;;;426.93;183.03;;;;;;;-142.25;100.00;58004.16;5022533;28;20377;-61
2023/03/31 05:29:20;;;;;;;426.97;181.40;;;;;;;-142.25;100.00;58004.16;5022645;28;20052;-60
2023/03/31 05:31:46;;;;;;;428.40;182.10;;;;;;;-142.25;100.00;58004.16;5022862;28;20037;-60
2023/03/31 05:34:13;;;;;;;425.67;185.47;;;;;;;-142.25;100.00;58004.16;5025973;28;20071;-60
2023/03/31 05:36:39;;;;;;;426.60;182.90;;;;;;;-142.25;100.00;58004.16;5026084;28;20037;-59
2023/03/31 05:39:05;;;;;;;426.73;181.37;;;;;;;-142.25;100.00;58004.16;5027313;28;20495;-61
2023/03/31 05:41:30;;;;;;;422.07;183.70;;;;;;;-142.25;100.00;58004.16;5025442;28;20103;-60
2023/03/31 05:43:56;;;;;;;426.27;188.27;;;;;;;-142.25;100.00;58004.16;5024607;28;20787;-61
2023/03/31 05:46:22;;;;;;;429.13;196.93;;;;;;;-142.25;100.00;58004.16;5023390;28;20085;-60
2023/03/31 05:48:47;;;;;;;432.10;200.57;;;;;;;-142.25;100.00;58004.16;5022702;28;20146;-62
2023/03/31 05:51:13;;;;;;;433.07;198.73;;;;;;;-142.25;100.00;58004.16;5023291;28;20506;-59
2023/03/31 05:53:38;;;;;;;430.97;201.60;;;;;;;-142.25;100.00;58004.16;5026774;28;20706;-61
2023/03/31 05:56:08;;;;;;;435.57;213.07;;;;;;;-142.25;100.00;58004.16;5026990;28;20458;-60
2023/03/31 05:58:35;;;;;;;433.43;213.33;;;;;;;-142.25;100.00;58004.16;5026255;28;20037;-60
2023/03/31 06:01:06;;;;;;;437.13;217.67;;;;;;;-142.25;100.00;58004.16;5024909;28;20096;-61
2023/03/31 06:03:37;;;;;;;434.30;209.33;;;;;;;-142.25;100.00;58004.16;5025053;28;20124;-60
2023/03/31 06:06:07;;;;;;;432.90;218.73;;;;;;;-142.25;100.00;58004.16;5029435;28;20068;-61
2023/03/31 06:08:34;;;;;;;435.67;229.83;;;;;;;-142.25;100.00;58004.16;5027023;28;20049;-60
2023/03/31 06:11:03;;;;;;;435.20;223.93;;;;;;;-142.25;100.00;58004.16;5027256;28;20059;-61
2023/03/31 06:13:29;;;;;;;439.00;228.73;;;;;;;-142.25;100.00;58004.16;5027398;28;20048;-61
2023/03/31 06:15:56;;;;;;;440.27;233.57;;;;;;;-142.25;100.00;58004.16;5030892;28;20050;-61
2023/03/31 06:18:22;;;;;;;440.70;239.87;;;;;;;-142.25;100.00;58004.16;5040404;28;20048;-61
2023/03/31 06:20:49;;;;;;;443.23;243.77;;;;;;;-142.25;100.00;58004.16;5027599;28;20607;-61
2023/03/31 06:23:15;;;;;;;442.87;243.97;;;;;;;-142.25;100.00;58004.16;5025067;28;20048;-62
2023/03/31 06:25:40;;;;;;;432.87;229.50;;;;;;;-142.25;100.00;58004.16;5022044;28;20053;-59
2023/03/31 06:28:06;;;;;;;442.73;245.67;;;;;;;-142.25;100.00;58004.16;5024002;28;20037;-61
2023/03/31 06:30:32;;;;;;;448.33;263.23;;;;;;;-142.25;100.00;58004.16;5029105;28;20045;-61
2023/03/31 06:32:58;;;;;;;442.03;253.43;;;;;;;-142.25;100.00;58004.16;5026216;28;20080;-60
2023/03/31 06:35:24;;;;;;;443.80;254.63;;;;;;;-142.25;100.00;58004.16;5027689;28;20596;-60
2023/03/31 06:37:50;;;;;;;446.83;262.80;;;;;;;-142.25;100.00;58004.16;5030657;28;20036;-61
2023/03/31 06:40:15;;;;;;;434.57;251.73;;;;;;;-142.25;100.00;58004.16;5029535;28;20045;-61
2023/03/31 06:42:41;;;;;;;439.77;260.50;;;;;;;-142.25;100.00;58004.16;5033452;28;20041;-60
2023/03/31 06:45:07;;;;;;;450.27;273.63;;;;;;;-142.25;100.00;58004.16;5026319;28;20333;-61
2023/03/31 06:47:32;;;;;;;447.80;276.80;;;;;;;-142.25;100.00;58004.16;5027066;28;21020;-60
2023/03/31 06:49:58;;;;;;;444.97;270.43;;;;;;;-142.25;100.00;58004.16;5028578;28;20369;-60
2023/03/31 06:52:24;;;;;;;448.17;276.27;;;;;;;-142.25;100.00;58004.16;5027123;28;20379;-60
2023/03/31 06:54:49;;;;;;;452.57;295.10;;;;;;;-142.25;100.00;58004.16;5028398;28;20049;-61
2023/03/31 06:57:16;;;;;;;444.47;289.73;;;;;;;-142.25;100.00;58004.16;5026764;28;20041;-60
2023/03/31 06:59:41;;;;;;;449.80;295.60;;;;;;;-142.25;100.00;58004.16;5027895;28;20524;-60
2023/03/31 07:02:09;;;;;;;454.17;307.17;;;;;;;-142.25;100.00;58004.16;5031357;28;20450;-59
2023/03/31 07:04:35;;;;;;;458.30;310.57;;;;;;;-142.25;100.00;58004.16;5028294;28;20068;-59
2023/03/31 07:07:00;;;;;;;457.83;318.60;;;;;;;-142.25;100.00;58004.16;5027322;28;20073;-62
2023/03/31 07:09:26;;;;;;;450.07;310.20;;;;;;;-142.25;100.00;58004.16;5028477;28;20137;-66
2023/03/31 07:11:52;;;;;;;461.63;324.63;;;;;;;-142.25;100.00;58004.16;5027210;28;20411;-67
2023/03/31 07:14:18;;;;;;;445.63;313.67;;;;;;;-142.25;100.00;58004.16;5027384;28;20037;-65
2023/03/31 07:16:43;;;;;;;440.00;309.27;;;;;;;-142.25;100.00;58004.16;5026837;28;20290;-65
2023/03/31 07:19:09;;;;;;;443.33;315.57;;;;;;;-142.25;100.00;58004.16;5028426;28;20160;-65
2023/03/31 07:21:36;;;;;;;455.90;339.03;;;;;;;-142.25;100.00;58004.16;5026442;28;20428;-71
2023/03/31 07:24:02;;;;;;;462.23;352.17;;;;;;;-142.25;100.00;58004.16;5027339;28;20633;-69
2023/03/31 07:26:28;;;;;;;457.83;342.27;;;;;;;-142.25;100.00;58004.16;5026262;28;20040;-69
2023/03/31 07:28:55;;;;;;;450.30;341.50;;;;;;;-142.25;100.00;58004.16;5028213;28;20045;-69
2023/03/31 07:31:21;;;;;;;471.70;392.67;;;;;;;-142.25;100.00;58004.16;5024335;28;20037;-69
2023/03/31 07:33:46;;;;;;;470.13;389.93;;;;;;;-142.25;100.00;58004.16;5023943;28;20503;-70
2023/03/31 07:36:12;;;;;;;466.30;376.60;;;;;;;-142.25;100.00;58004.16;5028927;28;20140;-69
2023/03/31 07:38:38;;;;;;;474.67;399.87;;;;;;;-142.25;100.00;58004.16;5030235;28;20361;-70
2023/03/31 07:41:05;;;;;;;464.17;382.73;;;;;;;-142.25;100.00;58004.16;5029768;28;20037;-69
2023/03/31 07:43:30;;;;;;;465.27;384.37;;;;;;;-142.25;100.00;58004.16;5030690;28;20075;-70
2023/03/31 07:45:56;;;;;;;471.10;400.30;;;;;;;-142.25;100.00;58004.16;5031076;28;20053;-70
2023/03/31 07:48:22;;;;;;;460.60;371.83;;;;;;;-142.25;100.00;58004.16;5029232;28;20638;-69
2023/03/31 07:50:47;;;;;;;475.17;413.87;;;;;;;-142.25;100.00;58004.16;5033134;28;20573;-70
2023/03/31 07:53:23;;;;;;;483.90;429.97;;;;;;;-142.25;100.00;58004.16;5025423;28;20609;-70
2023/03/31 07:55:48;;;;;;;488.93;435.40;;;;;;;-142.25;100.00;58004.16;5026915;28;20053;-70
2023/03/31 07:58:14;;;;;;;474.07;412.20;;;;;;;-142.25;100.00;58004.16;5028648;28;20447;-70
2023/03/31 08:00:39;;;;;;;490.57;436.57;;;;;;;-142.25;100.00;58004.16;5024735;28;20135;-70
2023/03/31 08:03:05;;;;;;;479.13;425.37;;;;;;;-142.25;100.00;58004.16;5028071;28;20033;-70
2023/03/31 08:05:31;;;;;;;502.87;448.80;;;;;;;-142.25;100.00;58004.16;5027450;28;20042;-72
2023/03/31 08:07:57;;;;;;;461.67;399.90;;;;;;;-142.25;100.00;58004.16;5028526;28;20413;-70
2023/03/31 08:10:25;;;;;;;504.97;451.80;;;;;;;-142.25;100.00;58004.16;5033257;28;20041;-70
2023/03/31 08:12:50;;;;;;;511.83;458.00;;;;;;;-142.25;100.00;58004.16;5029097;28;20045;-72
2023/03/31 08:15:16;;;;;;;529.87;475.87;;;;;;;-142.25;100.00;58004.16;5026275;28;20048;-69
2023/03/31 08:17:42;;;;;;;541.97;487.53;;;;;;;-142.25;100.00;58004.16;5033827;28;20448;-69
2023/03/31 08:20:09;;;;;;;533.67;479.73;;;;;;;-142.25;100.00;58004.16;5027358;28;20046;-69
2023/03/31 08:22:36;;;;;;;530.30;475.97;;;;;;;-142.25;100.00;58004.16;5025664;28;20370;-69
2023/03/31 08:25:03;;;;;;;483.80;431.73;;;;;;;-142.25;100.00;58004.16;5026799;28;20132;-69
2023/03/31 08:27:32;;;;;;;520.00;466.47;;;;;;;-142.25;100.00;58004.16;5025240;28;20682;-69
2023/03/31 08:30:01;;;;;;;513.17;459.97;;;;;;;-142.25;100.00;58004.16;5028726;28;20041;-69
2023/03/31 08:32:27;;;;;;;527.60;473.47;;;;;;;-142.25;100.00;58004.16;5024975;28;20352;-70
2023/03/31 08:34:53;;;;;;;527.27;473.50;;;;;;;-142.25;100.00;58004.16;5024080;28;20098;-70
2023/03/31 08:37:18;;;;;;;514.13;460.87;;;;;;;-142.25;100.00;58004.16;5026026;28;20122;-70
2023/03/31 08:39:44;;;;;;;541.60;487.13;;;;;;;-142.25;100.00;58004.16;5025910;28;20464;-69
2023/03/31 08:42:14;;;;;;;502.67;449.60;;;;;;;-142.25;100.00;58004.16;5026272;28;20053;-68
2023/03/31 08:44:55;;;;;;;518.33;464.57;;;;;;;-142.25;100.00;58004.16;5025682;28;20041;-68
2023/03/31 08:47:25;;;;;;;520.90;467.20;;;;;;;-142.25;100.00;58004.16;5024949;28;20096;-69
2023/03/31 08:49:55;;;;;;;500.67;448.10;;;;;;;-142.25;100.00;58004.16;5026874;28;20041;-68
2023/03/31 08:53:05;;;;;;;527.73;474.10;;;;;;;-142.25;100.00;58004.16;5023481;28;20045;-67
2023/03/31 08:55:47;;;;;;;525.23;471.60;;;;;;;-142.25;100.00;58004.16;4990521;28;20252;-68
2023/03/31 08:58:32;;;;;;;532.83;479.37;;;;;;;-142.25;100.00;58004.16;4980989;28;20052;-68
2023/03/31 09:01:07;;;;;;;536.28;482.52;;;;;;;-142.25;100.00;58004.16;4994630;28;20097;-66
2023/03/31 09:03:45;;;;;;;538.97;485.08;;;;;;;-142.25;100.00;58004.16;4995662;28;20050;-63
2023/03/31 09:06:23;;;;;;;554.10;499.60;;;;;;;-142.25;100.00;58004.16;4995453;28;20089;-66
2023/03/31 09:08:50;;;;;;;551.57;497.20;;;;;;;-142.25;100.00;58004.16;4994739;28;20046;-67
2023/03/31 09:11:28;;;;;;;557.27;502.40;;;;;;;-142.25;100.00;58004.16;4990433;28;20140;-67
2023/03/31 09:13:56;;;;;;;535.30;481.63;;;;;;;-142.25;100.00;58004.16;4992211;28;20120;-66
2023/03/31 09:17:13;;;;;;;540.80;486.63;;;;;;;-142.25;100.00;58004.16;4993072;28;20513;-71
2023/03/31 09:19:43;;;;;;;537.13;483.00;;;;;;;-142.25;100.00;58004.16;4968231;28;20058;-68
2023/03/31 09:22:19;;;;;;;517.13;464.03;;;;;;;-142.25;100.00;58004.16;4994039;28;20497;-67
2023/03/31 09:25:00;;;;;;;487.87;436.27;;;;;;;-142.25;100.00;58004.16;4994079;28;20046;-67
2023/03/31 09:27:30;;;;;;;526.87;473.30;;;;;;;-142.25;100.00;58004.16;4992750;28;20351;-71
2023/03/31 09:30:04;;;;;;;553.57;499.00;;;;;;;-142.25;100.00;58004.16;4994651;28;20050;-67
2023/03/31 09:32:32;;;;;;;516.60;463.83;;;;;;;-142.25;100.00;58004.16;5020521;28;20139;-67
2023/03/31 09:35:11;;;;;;;534.63;480.60;;;;;;;-142.25;100.00;58004.16;5025578;28;20048;-68
2023/03/31 09:37:37;;;;;;;536.27;482.23;;;;;;;-142.25;100.00;58004.16;5027855;28;20038;-67
2023/03/31 09:40:09;;;;;;;534.37;480.47;;;;;;;-142.25;100.00;58004.16;5027184;28;20404;-63
2023/03/31 09:42:36;;;;;;;498.77;446.53;;;;;;;-142.25;100.00;58004.16;5023635;28;20084;-69
2023/03/31 09:45:01;;;;;;;530.43;477.00;;;;;;;-142.25;100.00;58004.16;5023037;28;20037;-67
2023/03/31 09:47:32;;;;;;;560.40;505.90;;;;;;;-142.25;100.00;58004.16;5023866;28;20042;-67
2023/03/31 09:49:58;;;;;;;547.57;493.63;;;;;;;-142.25;100.00;58004.16;5027319;28;20460;-68
2023/03/31 09:52:40;;;;;;;549.60;495.37;;;;;;;-142.25;100.00;58004.16;5025870;28;20050;-67
2023/03/31 09:55:19;;;;;;;559.80;505.40;;;;;;;-142.25;100.00;58004.16;5036846;28;20048;-66
2023/03/31 09:57:45;;;;;;;525.93;473.03;;;;;;;-142.25;100.00;58004.16;5025624;28;20042;-67
2023/03/31 10:00:14;;;;;;;540.83;487.43;;;;;;;-142.25;100.00;58004.16;5024699;28;20068;-68
2023/03/31 10:02:52;;;;;;;560.93;506.37;;;;;;;-142.25;100.00;58004.16;5032148;28;20115;-67
2023/03/31 10:05:24;;;;;;;567.27;512.37;;;;;;;-142.25;100.00;58004.16;5026843;28;20971;-66
2023/03/31 10:07:50;;;;;;;571.60;516.53;;;;;;;-142.25;100.00;58004.16;5028881;28;20719;-66
2023/03/31 10:10:32;;;;;;;524.87;472.17;;;;;;;-142.25;100.00;58004.16;5034098;28;20453;-68
2023/03/31 10:13:00;;;;;;;559.07;504.63;;;;;;;-142.25;100.00;58004.16;5029207;28;20645;-67
2023/03/31 10:15:27;;;;;;;545.63;491.53;;;;;;;-142.25;100.00;58004.16;5028072;28;20399;-68
2023/03/31 10:17:56;;;;;;;551.47;497.10;;;;;;;-142.25;100.00;58004.16;5030508;28;20115;-66
2023/03/31 10:20:28;;;;;;;547.47;493.47;;;;;;;-142.25;100.00;58004.16;5031265;28;20041;-66
2023/03/31 10:22:54;;;;;;;493.10;441.57;;;;;;;-142.25;100.00;58004.16;5029264;28;20041;-68
2023/03/31 10:25:26;;;;;;;503.97;451.73;;;;;;;-142.25;100.00;58004.16;5027698;28;20162;-70
2023/03/31 10:27:54;;;;;;;513.73;461.47;;;;;;;-142.25;100.00;58004.16;5027679;28;20041;-70
2023/03/31 10:30:23;;;;;;;525.63;472.23;;;;;;;-142.25;100.00;58004.16;5030472;28;20045;-71
2023/03/31 10:32:49;;;;;;;530.47;477.27;;;;;;;-142.25;100.00;58004.16;5028941;28;20464;-71
2023/03/31 10:35:21;;;;;;;548.93;494.37;;;;;;;-142.25;100.00;58004.16;5027502;28;20051;-70
2023/03/31 10:37:49;;;;;;;564.80;510.30;;;;;;;-142.25;100.00;58004.16;5031959;28;20041;-70
2023/03/31 10:40:21;;;;;;;554.77;500.60;;;;;;;-142.25;100.00;58004.16;5032110;28;20160;-71
2023/03/31 10:42:57;;;;;;;531.57;478.10;;;;;;;-142.25;100.00;58004.16;5032948;28;20041;-71
2023/03/31 10:45:35;;;;;;;565.17;510.67;;;;;;;-142.25;100.00;58004.16;5032319;28;20408;-66
2023/03/31 10:48:00;;;;;;;553.67;499.70;;;;;;;-142.25;100.00;58004.16;5030456;28;20041;-67
2023/03/31 10:50:33;;;;;;;564.83;510.10;;;;;;;-142.25;100.00;58004.16;5030195;28;20507;-66
2023/03/31 10:53:11;;;;;;;541.60;487.77;;;;;;;-142.25;100.00;58004.16;5030419;28;20410;-66
2023/03/31 10:56:04;;;;;;;556.77;502.37;;;;;;;-142.25;100.00;58004.16;5029301;28;20035;-69